首页
METAR-TAF:

METAR-TAF

机场 :

Loei, 泰国

纬度: 17-27N, 经度: 101-44E, 海拔: 253米

当前天气观测

该预报发布于1小时和17分钟前的03:00 UTC
风速3节,风向多变
温度 32°C
湿度 71%
气压 1005 hPa
能见度10公里或以上
少量云层高于3000英尺

METAR: VTUL 220300Z VRB03KT 9999 FEW030 32/26 Q1005 NOSIG

时间: 11:17 (04:17 UTC)

预报

该预报发布于5小时和17分钟前的23:00 UTC
预报有效从22日的 00点(UTC)到 22日的 24点(UTC)
风速5节,风向南转西南
能見度: 9000
少量云层高于3000英尺
短暂存在
从 22日的 08点(UTC)到 22日的 14点(UTC)
风速15节,风向多变
少量云层高于1800英尺, 积雨云.
多云层高于2500英尺
雷暴, 小雨,

TAF: VTUL 212300Z 2200/2224 21005KT 9000 FEW030 TEMPO 2208/2214 VRB15KT -TSRA FEW018CB BKN025

超过4000个机场的气象观测和天气预报(METAR&TAF报告)。

可查询的气象台以黄色和红色小点在地图上表示。

将鼠标移到小点上方,可查看气象台名称。

然后点击查看天气观测和预报。

如需切换地图:点击带黑十字的绿色按钮放大地图;点击带横线的绿色按钮缩小地图;或者点击绿色箭头查看邻近地区的地图。


METAR-TAF: